Flight Track Log - Related Links

Times and Time Zones

All times are in EDT time to prevent confusion due to time zone crossing. See the THY2426 flight status page for this flight to view local times or setup timezone preferences in your user account.

Time Position Orientation Groundspeed Altitude Reporting Facility
EDT Latitude Longitude Course Direction KTS MPH feet Rate Location/Type
Fri 04:25:00 PM 40.5086 29.0603 159° South  Level Estimated
Fri 04:26:00 PM 40.4305 29.0999 159° South  Level Estimated
Fri 04:27:00 PM 40.3524 29.1393 159° South  Level Estimated
Fri 04:28:00 PM 40.2743 29.1787 159° South  Level Estimated
Fri 04:29:00 PM 40.1962 29.2180 159° South  Level Estimated
Fri 04:30:00 PM 40.1180 29.2572 159° South  Level Estimated
Fri 04:31:00 PM 40.0399 29.2962 159° South  Level Estimated
Fri 04:32:00 PM 39.9617 29.3352 159° South  Level Estimated
Fri 04:33:00 PM 39.8835 29.3741 159° South  Level Estimated
Fri 04:34:00 PM 39.8053 29.4130 159° South  Level Estimated
Fri 04:35:00 PM 39.7271 29.4517 159° South  Level Estimated
Fri 04:36:00 PM 39.6489 29.4904 159° South  Level Estimated
Fri 04:37:00 PM 39.5706 29.5289 159° South  Level Estimated
Fri 04:38:00 PM 39.4924 29.5674 159° South  Level Estimated
Fri 04:39:00 PM 39.4141 29.6058 159° South  Level Estimated
Fri 04:40:00 PM 39.3358 29.6441 159° South  Level Estimated
Fri 04:41:00 PM 39.2575 29.6823 159° South  Level Estimated
Fri 04:42:00 PM 39.1792 29.7204 159° South  Level Estimated
Fri 04:43:00 PM 39.1009 29.7585 159° South  Level Estimated
Fri 04:44:00 PM 39.0226 29.7964 159° South  Level Estimated
Fri 04:45:00 PM 38.9443 29.8343 159° South  Level Estimated
Fri 04:46:00 PM 38.8659 29.8721 159° South  Level Estimated
Fri 04:47:00 PM 38.7876 29.9098 159° South  Level Estimated
Fri 04:48:00 PM 38.7092 29.9474 159° South  Level Estimated
Fri 04:49:00 PM 38.6308 29.9850 159° South  Level Estimated
Fri 04:50:00 PM 38.5524 30.0224 160° South  Level Estimated
Fri 04:51:00 PM 38.4740 30.0598 160° South  Level Estimated
Fri 04:52:00 PM 38.3956 30.0971 160° South  Level Estimated
Fri 04:53:00 PM 38.3171 30.1343 160° South  Level Estimated
Fri 04:54:00 PM 38.2387 30.1715 160° South  Level Estimated
Fri 04:55:00 PM 38.1602 30.2085 160° South  Level Estimated
Fri 04:56:00 PM 38.0818 30.2455 160° South  Level Estimated
Fri 04:57:00 PM 38.0033 30.2824 160° South  Level Estimated
Fri 04:58:00 PM 37.9248 30.3192 160° South  Level Estimated
Fri 04:59:00 PM 37.8463 30.3560 160° South  Level Estimated
Fri 05:00:00 PM 37.7678 30.3926 160° South  Level Estimated
Fri 05:01:00 PM 37.6893 30.4292 160° South  Level Estimated
Fri 05:02:00 PM 37.6107 30.4657 160° South  Level Estimated
Fri 05:03:00 PM 37.5322 30.5022 160° South  Level Estimated
Fri 05:04:00 PM 37.4536 30.5385 160° South  Level Estimated
Fri 05:05:00 PM 37.3750 30.5748 160° South  Level Estimated
Fri 05:06:00 PM 37.2965 30.6110 160° South  Level Estimated
Fri 05:07:00 PM 37.2179 30.6471 160° South  Level Estimated
Fri 05:08:00 PM 37.1393 30.6832 160° South  Level Estimated
Fri 05:09:00 PM 37.0606 30.7192 160° South  Level Estimated
Fri 05:10:00 PM 36.9820 30.7551 160° South  Level Estimated
Fri 05:11:00 PM 36.9034 30.7909 160° South  Level Estimated
Fri 05:12:00 PM 36.9015 30.7917 160° South  Level Estimated
Fri 05:13:00 PM 36.9015 30.7917 North  Level Estimated
Fri 05:14:00 PM 36.9015 30.7917 North  Level Estimated
Fri 05:15:00 PM 36.9015 30.7917 North  Level Estimated
Fri 05:16:00 PM 36.9015 30.7917 North  Level Estimated
Fri 05:17:00 PM 36.9015 30.7917 North  Level Estimated
Fri 05:18:00 PM 36.9015 30.7917 North  Level Estimated
Fri 05:19:00 PM 36.9015 30.7917 North  Level Estimated
Fri 05:20:00 PM 36.9015 30.7917 North  Level Estimated
Fri 05:21:00 PM 36.9015 30.7917 North  Level Estimated
Fri 05:22:00 PM 36.9015 30.7917 North  Level Estimated
Fri 05:23:00 PM 36.9015 30.7917 North  Level Estimated
Fri 05:24:00 PM 36.9015 30.7917 North  Level Estimated
Fri 05:25:00 PM 36.9015 30.7917 North  Level Estimated
Fri 05:26:00 PM 36.9015 30.7917 North  Level Estimated
Fri 05:27:00 PM 36.9015 30.7917 North  Level Estimated

Login

Don't have an account? Register now (free) for customized features, flight alerts, and more!